Time;durP1;ratioP1;P1;durP2;ratioP2;P2;SDS_P1;SDS_P2;PMS_P1;PMS_P2;Temp;Humidity;BMP_temperature;BMP_pressure;BME280_temperature;BME280_humidity;BME280_pressure;Samples;Min_cycle;Max_cycle;Signal;HPM_P1;HPM_P2
2021/09/02 00:00:10;;;;;;;2.15;1.60;;;;;;;12.87;58.86;102242.78;6266319;28;20189;-73
2021/09/02 00:03:20;;;;;;;1.42;1.30;;;;;;;12.95;59.39;102248.13;6266074;28;20204;-73
2021/09/02 00:06:24;;;;;;;1.92;1.20;;;;;;;12.87;59.59;102251.00;6264801;28;20236;-73
2021/09/02 00:09:28;;;;;;;4.75;1.10;;;;;;;12.80;59.20;102252.84;6265969;28;20252;-73
2021/09/02 00:12:32;;;;;;;1.50;1.40;;;;;;;12.79;59.58;102245.69;6266283;28;20248;-73
2021/09/02 00:15:38;;;;;;;1.50;1.50;;;;;;;12.67;58.94;102258.19;6266094;28;20287;-73
2021/09/02 00:18:45;;;;;;;1.85;1.40;;;;;;;12.67;58.49;102264.53;6266211;28;20185;-73
2021/09/02 00:21:49;;;;;;;1.70;1.60;;;;;;;12.58;58.93;102266.53;6266088;28;20248;-73
2021/09/02 00:24:53;;;;;;;3.88;1.60;;;;;;;12.61;59.07;102259.00;6265715;28;20227;-73
2021/09/02 00:27:57;;;;;;;1.73;1.63;;;;;;;12.50;59.29;102253.00;6264630;28;20185;-73
2021/09/02 00:31:03;;;;;;;1.65;1.55;;;;;;;12.55;59.74;102250.53;6264615;28;20248;-73
2021/09/02 00:34:08;;;;;;;1.40;1.30;;;;;;;12.52;59.31;102267.34;6264362;28;20273;-73
2021/09/02 00:37:13;;;;;;;3.85;1.60;;;;;;;12.56;58.55;102263.16;6264440;28;20224;-73
2021/09/02 00:40:17;;;;;;;3.63;1.55;;;;;;;12.44;58.69;102275.69;6264362;28;20193;-73
2021/09/02 00:43:22;;;;;;;2.63;1.40;;;;;;;12.43;58.83;102254.81;6264189;28;20472;-73
2021/09/02 00:46:27;;;;;;;1.95;1.50;;;;;;;12.29;59.68;102255.72;6265029;28;20210;-73
2021/09/02 00:49:32;;;;;;;4.47;1.40;;;;;;;12.40;61.74;102266.13;6265431;28;20220;-73
2021/09/02 00:52:36;;;;;;;4.15;1.40;;;;;;;12.28;59.80;102259.50;6265115;28;20193;-73
2021/09/02 00:55:42;;;;;;;1.60;1.50;;;;;;;12.38;60.30;102264.63;6263918;28;20519;-73
2021/09/02 00:58:47;;;;;;;1.30;1.23;;;;;;;12.35;59.59;102271.34;6264173;28;20252;-73
2021/09/02 01:01:53;;;;;;;2.58;1.50;;;;;;;12.34;60.02;102275.16;6264203;28;20507;-73
2021/09/02 01:04:59;;;;;;;4.90;1.50;;;;;;;12.26;59.85;102290.84;6264108;28;20291;-73
2021/09/02 01:08:05;;;;;;;1.33;1.25;;;;;;;12.20;59.43;102273.28;6265015;28;20192;-73
2021/09/02 01:11:29;;;;;;;1.48;1.48;;;;;;;12.13;61.07;102277.84;6264976;28;20185;-73
2021/09/02 01:14:33;;;;;;;1.92;1.40;;;;;;;12.19;59.16;102266.13;6264432;28;20208;-73
2021/09/02 01:17:40;;;;;;;1.33;1.20;;;;;;;12.21;59.45;102280.47;6262956;28;20491;-73
2021/09/02 01:20:44;;;;;;;1.23;1.20;;;;;;;12.11;60.09;102279.94;6264322;28;20200;-73
2021/09/02 01:23:50;;;;;;;1.35;1.30;;;;;;;11.98;59.46;102260.63;6263250;28;20356;-73
2021/09/02 01:26:54;;;;;;;2.30;1.67;;;;;;;11.90;59.98;102268.94;6263214;28;20528;-73
2021/09/02 01:30:00;;;;;;;3.28;1.35;;;;;;;11.95;60.61;102271.94;6263476;28;20222;-73
2021/09/02 01:33:07;;;;;;;2.33;1.50;;;;;;;12.07;60.25;102273.13;6264302;28;20231;-73
2021/09/02 01:36:11;;;;;;;2.88;1.45;;;;;;;11.99;60.31;102270.53;6264280;28;20209;-73
2021/09/02 01:39:20;;;;;;;3.45;1.33;;;;;;;11.96;60.26;102270.91;6262855;28;20208;-72
2021/09/02 01:42:24;;;;;;;4.80;1.60;;;;;;;11.84;60.18;102267.81;6263883;28;20240;-73
2021/09/02 01:45:29;;;;;;;1.42;1.30;;;;;;;11.91;60.65;102273.38;6263781;28;20188;-73
2021/09/02 01:48:34;;;;;;;1.50;1.40;;;;;;;11.95;60.90;102269.22;6263613;28;20185;-73
2021/09/02 01:51:38;;;;;;;3.63;1.45;;;;;;;11.88;60.08;102284.69;6262559;28;20440;-74
2021/09/02 01:54:45;;;;;;;2.53;1.30;;;;;;;11.86;60.90;102292.25;6263420;28;20215;-73
2021/09/02 01:57:49;;;;;;;4.88;1.50;;;;;;;11.71;61.00;102272.28;6263792;28;20217;-73
2021/09/02 02:00:55;;;;;;;1.33;1.23;;;;;;;11.80;60.63;102280.19;6262949;28;20209;-73
2021/09/02 02:04:02;;;;;;;1.75;1.35;;;;;;;11.68;61.15;102284.44;6262201;28;20259;-73
2021/09/02 02:07:06;;;;;;;3.83;1.80;;;;;;;11.53;61.49;102282.72;6263394;28;20211;-74
2021/09/02 02:10:15;;;;;;;3.78;1.77;;;;;;;11.64;61.87;102288.53;6263207;28;20185;-73
2021/09/02 02:13:21;;;;;;;1.70;1.60;;;;;;;11.59;60.59;102273.72;6262862;28;20208;-73
2021/09/02 02:16:25;;;;;;;2.70;1.48;;;;;;;11.64;62.07;102271.28;6261988;28;20566;-73
2021/09/02 02:19:30;;;;;;;1.10;1.10;;;;;;;11.67;61.30;102279.09;6263049;28;20191;-73
2021/09/02 02:22:34;;;;;;;6.15;1.27;;;;;;;11.58;62.56;102277.53;6261973;28;20472;-72
2021/09/02 02:25:40;;;;;;;2.90;1.55;;;;;;;11.56;61.28;102276.84;6262452;28;20193;-72
2021/09/02 02:28:44;;;;;;;1.40;1.30;;;;;;;11.36;62.17;102284.75;6262845;28;20252;-73
2021/09/02 02:31:49;;;;;;;2.92;1.52;;;;;;;11.43;63.43;102293.06;6261268;28;20506;-72
2021/09/02 02:34:53;;;;;;;1.60;1.50;;;;;;;11.29;62.21;102295.59;6262680;28;20388;-73
2021/09/02 02:37:57;;;;;;;1.23;1.23;;;;;;;11.25;62.42;102301.59;6261677;28;20414;-72
2021/09/02 02:41:03;;;;;;;1.20;1.20;;;;;;;11.27;62.06;102305.84;6262773;28;20188;-72
2021/09/02 02:44:09;;;;;;;2.90;1.35;;;;;;;11.04;62.60;102305.03;6261568;28;20247;-72
2021/09/02 02:47:16;;;;;;;2.28;1.30;;;;;;;10.94;63.46;102317.28;6262923;28;20196;-73
2021/09/02 02:50:20;;;;;;;1.88;1.40;;;;;;;11.03;62.64;102308.81;6244819;28;20200;-72
2021/09/02 02:53:24;;;;;;;3.20;1.40;;;;;;;11.05;63.32;102320.41;6262676;28;20188;-72
2021/09/02 02:56:30;;;;;;;3.30;1.60;;;;;;;11.10;62.62;102315.25;6261479;28;20406;-73
2021/09/02 02:59:35;;;;;;;6.80;1.50;;;;;;;10.97;62.89;102320.47;6261828;28;20185;-73
2021/09/02 03:02:39;;;;;;;2.00;1.38;;;;;;;10.95;62.90;102314.34;6262053;28;20369;-73
2021/09/02 03:05:43;;;;;;;2.25;1.25;;;;;;;10.77;63.21;102308.38;6262054;28;20316;-73
2021/09/02 03:08:48;;;;;;;2.42;1.30;;;;;;;10.72;63.05;102297.16;6261416;28;20492;-72
2021/09/02 03:11:55;;;;;;;2.63;1.30;;;;;;;10.89;62.83;102297.88;6262262;28;20188;-73
2021/09/02 03:15:00;;;;;;;1.40;1.30;;;;;;;10.67;63.18;102292.25;6261242;28;20496;-72
2021/09/02 03:18:06;;;;;;;1.88;1.40;;;;;;;10.77;63.49;102300.16;6261078;28;20185;-72
2021/09/02 03:21:12;;;;;;;2.25;1.20;;;;;;;10.67;63.40;102299.56;6262592;28;20189;-73
2021/09/02 03:24:17;;;;;;;1.52;1.33;;;;;;;10.75;63.33;102290.47;6261184;28;20531;-73
2021/09/02 03:27:22;;;;;;;1.40;1.40;;;;;;;10.66;63.37;102293.25;6262548;28;20224;-73
2021/09/02 03:30:27;;;;;;;1.27;1.27;;;;;;;10.63;63.13;102281.88;6261035;28;20275;-72
2021/09/02 03:33:31;;;;;;;1.75;1.13;;;;;;;10.49;64.13;102291.69;6262450;28;20185;-72
2021/09/02 03:36:35;;;;;;;1.90;1.40;;;;;;;10.54;63.45;102274.75;6261910;28;20271;-72
2021/09/02 03:39:40;;;;;;;7.80;2.00;;;;;;;10.44;63.83;102293.25;6260945;28;20507;-73
2021/09/02 03:42:49;;;;;;;3.38;1.50;;;;;;;10.59;63.08;102281.38;6265591;28;20260;-73
2021/09/02 03:45:56;;;;;;;1.85;1.50;;;;;;;10.73;63.13;102277.00;6265591;28;20206;-73
2021/09/02 03:49:02;;;;;;;1.33;1.17;;;;;;;10.38;64.38;102293.97;6265578;28;20277;-73
2021/09/02 03:52:07;;;;;;;3.33;1.23;;;;;;;10.45;63.72;102292.25;6266748;28;20185;-73
2021/09/02 03:55:13;;;;;;;2.53;1.30;;;;;;;10.48;63.35;102291.84;6248749;28;20242;-73
2021/09/02 03:58:19;;;;;;;2.50;1.35;;;;;;;10.54;64.09;102288.41;6265313;28;20437;-73
2021/09/02 04:01:25;;;;;;;2.15;1.35;;;;;;;10.39;63.54;102295.69;6266538;28;20267;-73
2021/09/02 04:04:29;;;;;;;2.78;1.17;;;;;;;10.36;64.57;102291.44;6266146;28;20237;-73
2021/09/02 04:07:34;;;;;;;1.85;1.08;;;;;;;10.32;64.23;102292.84;6266458;28;20189;-73
2021/09/02 04:10:40;;;;;;;1.40;1.40;;;;;;;10.50;64.38;102298.81;6266074;28;20185;-73
2021/09/02 04:13:46;;;;;;;2.42;1.10;;;;;;;10.39;64.39;102301.13;6265865;28;20248;-73
2021/09/02 04:16:55;;;;;;;1.77;1.30;;;;;;;10.31;64.61;102293.84;6265084;28;20213;-73
2021/09/02 04:19:59;;;;;;;2.58;1.50;;;;;;;10.56;64.22;102302.72;6265942;28;20191;-73
2021/09/02 04:23:04;;;;;;;2.65;1.40;;;;;;;10.34;64.34;102298.09;6265916;28;20220;-73
2021/09/02 04:26:09;;;;;;;2.55;1.30;;;;;;;10.45;66.32;102305.88;6265541;28;20195;-73
2021/09/02 04:29:15;;;;;;;1.30;1.20;;;;;;;10.48;64.12;102306.34;6265829;28;20251;-73
2021/09/02 04:32:20;;;;;;;1.30;1.30;;;;;;;10.45;64.36;102305.88;6265527;28;20192;-73
2021/09/02 04:35:24;;;;;;;1.30;1.30;;;;;;;10.54;64.66;102304.78;6265328;28;20185;-74
2021/09/02 04:38:28;;;;;;;3.33;1.23;;;;;;;10.54;64.56;102288.41;6264204;28;20217;-74
2021/09/02 04:41:33;;;;;;;1.58;1.45;;;;;;;10.60;64.50;102293.16;6264229;28;20375;-73
2021/09/02 04:44:41;;;;;;;3.92;1.58;;;;;;;10.64;64.15;102286.28;6265531;28;20185;-73
2021/09/02 04:47:45;;;;;;;1.77;1.70;;;;;;;10.46;63.89;102294.78;6265214;28;20189;-73
2021/09/02 04:50:51;;;;;;;1.50;1.40;;;;;;;10.60;64.03;102298.59;6265038;28;20185;-73
2021/09/02 04:53:55;;;;;;;1.20;1.10;;;;;;;10.55;63.78;102290.13;6264178;28;20185;-73
2021/09/02 04:56:59;;;;;;;1.35;1.13;;;;;;;10.76;63.97;102290.28;6265012;28;20293;-72
2021/09/02 05:00:09;;;;;;;2.95;1.30;;;;;;;10.71;64.09;102292.69;6263636;28;20500;-72
2021/09/02 05:03:14;;;;;;;2.50;1.40;;;;;;;10.45;64.28;102311.34;6263620;28;20263;-72
2021/09/02 05:06:18;;;;;;;4.35;1.30;;;;;;;10.46;63.82;102296.66;6263257;28;20240;-73
2021/09/02 05:09:23;;;;;;;4.93;1.20;;;;;;;10.49;64.65;102301.75;6264526;28;20185;-73
2021/09/02 05:12:47;;;;;;;8.57;1.33;;;;;;;10.57;65.22;102304.44;6264736;28;20192;-73
2021/09/02 05:15:53;;;;;;;3.85;1.15;;;;;;;10.45;64.18;102305.88;6263432;28;20499;-73
2021/09/02 05:18:57;;;;;;;12.18;1.52;;;;;;;10.56;64.96;102313.63;6263593;28;20531;-72
2021/09/02 05:22:02;;;;;;;3.28;1.23;;;;;;;10.53;64.45;102308.53;6264177;28;20208;-73
2021/09/02 05:25:07;;;;;;;3.13;1.30;;;;;;;10.61;63.70;102300.28;6263655;28;20189;-73
2021/09/02 05:28:12;;;;;;;2.53;1.30;;;;;;;10.55;63.10;102306.50;6263091;28;20189;-73
2021/09/02 05:31:17;;;;;;;1.67;1.20;;;;;;;10.69;63.19;102292.03;6264110;28;20184;-73
2021/09/02 05:34:22;;;;;;;7.38;1.50;;;;;;;10.63;62.36;102300.97;6263920;28;20251;-73
2021/09/02 05:37:26;;;;;;;3.30;1.40;;;;;;;10.54;63.80;102302.06;6264211;28;20209;-73
2021/09/02 05:40:31;;;;;;;4.22;1.40;;;;;;;10.84;63.97;102294.81;6262765;28;20472;-73
2021/09/02 05:43:35;;;;;;;1.60;1.48;;;;;;;10.52;62.68;102306.84;6264008;28;20256;-72
2021/09/02 05:46:42;;;;;;;1.63;1.52;;;;;;;10.74;62.34;102300.53;6262558;28;20472;-73
2021/09/02 05:49:46;;;;;;;1.60;1.30;;;;;;;10.77;63.63;102316.56;6262422;28;20392;-73
2021/09/02 05:52:51;;;;;;;2.33;1.23;;;;;;;10.96;62.73;102327.00;6263440;28;20189;-73
2021/09/02 05:55:55;;;;;;;1.40;1.30;;;;;;;10.93;61.79;102330.09;6262912;28;20185;-73
2021/09/02 05:58:59;;;;;;;2.75;1.27;;;;;;;11.05;62.03;102325.00;6262155;28;20263;-73
2021/09/02 06:02:05;;;;;;;1.63;1.27;;;;;;;10.97;62.77;102316.88;6263538;28;20263;-73
2021/09/02 06:05:10;;;;;;;5.90;1.30;;;;;;;10.96;61.98;102316.06;6262372;28;20520;-74
2021/09/02 06:08:15;;;;;;;2.47;1.30;;;;;;;10.83;61.19;102299.44;6263640;28;20195;-73
2021/09/02 06:11:19;;;;;;;4.78;1.30;;;;;;;11.04;61.51;102305.03;6261954;28;20577;-73
2021/09/02 06:14:23;;;;;;;3.20;1.30;;;;;;;10.92;61.63;102303.78;6261977;28;20384;-74
2021/09/02 06:17:29;;;;;;;4.00;2.17;;;;;;;11.06;61.34;102310.34;6261689;28;20462;-73
2021/09/02 06:20:33;;;;;;;2.05;1.45;;;;;;;11.14;62.10;102302.06;6263507;28;20263;-73
2021/09/02 06:23:38;;;;;;;1.38;1.13;;;;;;;11.14;60.43;102302.94;6262863;28;20192;-73
2021/09/02 06:26:42;;;;;;;3.70;1.38;;;;;;;11.17;61.29;102305.25;6262920;28;20220;-73
2021/09/02 06:29:46;;;;;;;3.03;1.38;;;;;;;11.31;60.67;102298.13;6263037;28;20185;-73
2021/09/02 06:32:52;;;;;;;1.75;1.15;;;;;;;11.37;60.98;102302.00;6263087;28;20264;-73
2021/09/02 06:35:56;;;;;;;2.30;1.20;;;;;;;11.56;60.75;102296.81;6262051;28;20185;-73
2021/09/02 06:39:00;;;;;;;4.25;1.33;;;;;;;11.70;61.46;102286.97;6262432;28;20294;-73
2021/09/02 06:42:04;;;;;;;1.55;1.10;;;;;;;11.87;62.46;102300.25;6262559;28;20185;-73
2021/09/02 06:45:11;;;;;;;12.88;1.35;;;;;;;12.12;60.98;102303.50;6262875;28;20192;-73
2021/09/02 06:48:16;;;;;;;1.20;1.10;;;;;;;12.27;60.58;102285.19;6261520;28;20376;-73
2021/09/02 06:51:23;;;;;;;4.15;1.20;;;;;;;12.34;59.69;102291.56;6262786;28;20185;-73
2021/09/02 06:54:27;;;;;;;1.10;1.00;;;;;;;12.40;60.46;102303.63;6262492;28;20216;-73
2021/09/02 06:57:31;;;;;;;1.33;1.20;;;;;;;12.58;59.57;102285.72;6262667;28;20228;-73
2021/09/02 07:00:35;;;;;;;1.30;1.20;;;;;;;12.70;60.86;102287.94;6261273;28;20477;-73
2021/09/02 07:03:41;;;;;;;9.15;1.20;;;;;;;12.69;59.83;102294.44;6261146;28;20185;-73
2021/09/02 07:06:45;;;;;;;1.08;1.08;;;;;;;12.74;61.84;102291.97;6262347;28;20185;-73
2021/09/02 07:09:49;;;;;;;1.13;1.10;;;;;;;12.62;56.77;102293.53;6262524;28;20267;-73
2021/09/02 07:12:53;;;;;;;1.25;1.00;;;;;;;12.65;57.13;102287.66;6261088;28;20418;-73
2021/09/02 07:15:58;;;;;;;1.40;1.10;;;;;;;12.81;57.01;102287.41;6261866;28;20192;-72
2021/09/02 07:19:04;;;;;;;1.42;1.23;;;;;;;12.98;57.15;102288.81;6267122;28;20219;-73
2021/09/02 07:22:08;;;;;;;3.60;1.42;;;;;;;12.84;56.75;102276.91;6266186;28;20526;-72
2021/09/02 07:25:13;;;;;;;2.47;1.23;;;;;;;13.02;56.53;102277.25;6267276;28;20260;-72
2021/09/02 07:28:17;;;;;;;1.13;1.02;;;;;;;13.20;56.97;102260.34;6266418;28;20189;-73
2021/09/02 07:31:26;;;;;;;1.38;0.90;;;;;;;12.90;56.26;102264.31;6267238;28;20185;-72
2021/09/02 07:34:31;;;;;;;1.00;1.00;;;;;;;13.24;56.60;102272.63;6266963;28;20231;-72
2021/09/02 07:37:37;;;;;;;4.05;1.10;;;;;;;13.24;58.07;102264.41;6266389;28;20192;-72
2021/09/02 07:40:41;;;;;;;0.98;0.90;;;;;;;13.13;55.82;102259.47;6266734;28;20252;-73
2021/09/02 07:44:01;;;;;;;4.88;1.00;;;;;;;13.17;56.41;102249.81;6266222;28;20243;-72
2021/09/02 07:47:06;;;;;;;3.40;1.10;;;;;;;13.18;57.47;102251.50;6265567;28;20185;-73
2021/09/02 07:50:12;;;;;;;2.30;1.15;;;;;;;13.23;55.44;102254.47;6265367;28;20394;-73
2021/09/02 07:53:17;;;;;;;1.58;1.05;;;;;;;13.15;54.01;102246.41;6265350;28;20185;-73
2021/09/02 07:56:23;;;;;;;1.13;1.13;;;;;;;13.20;55.26;102246.66;6265211;28;20438;-73
2021/09/02 07:59:27;;;;;;;5.25;1.00;;;;;;;13.31;56.85;102246.09;6266399;28;20213;-73
2021/09/02 08:02:34;;;;;;;2.40;1.00;;;;;;;13.45;53.97;102236.94;6266003;28;20291;-73
2021/09/02 08:05:39;;;;;;;0.98;0.98;;;;;;;13.47;55.05;102234.81;6265418;28;20236;-73
2021/09/02 08:08:44;;;;;;;0.98;0.90;;;;;;;13.52;54.54;102248.78;6248577;28;20205;-73
2021/09/02 08:11:48;;;;;;;1.85;1.10;;;;;;;13.59;54.08;102238.69;6264934;28;20208;-73
2021/09/02 08:14:52;;;;;;;6.07;1.40;;;;;;;13.58;55.08;102231.50;6264847;28;20372;-73
2021/09/02 08:17:59;;;;;;;1.85;1.00;;;;;;;13.61;53.67;102242.06;6265302;28;20199;-73
2021/09/02 08:21:05;;;;;;;0.90;0.90;;;;;;;13.71;53.89;102231.56;6264634;28;20469;-74
2021/09/02 08:24:11;;;;;;;1.00;1.00;;;;;;;13.61;55.89;102233.00;6265671;28;20185;-73
2021/09/02 08:27:16;;;;;;;3.00;1.30;;;;;;;13.66;55.54;102239.53;6263606;28;20185;-73
2021/09/02 08:30:23;;;;;;;2.60;1.20;;;;;;;13.75;55.11;102240.22;6264139;28;20534;-73
2021/09/02 08:33:30;;;;;;;1.08;0.90;;;;;;;13.96;55.24;102225.53;6265290;28;20191;-74
2021/09/02 08:36:36;;;;;;;0.98;0.98;;;;;;;13.98;55.41;102221.53;6264697;28;20249;-77
2021/09/02 08:39:43;;;;;;;3.25;1.02;;;;;;;14.12;53.93;102219.69;6264235;28;20449;-73
2021/09/02 08:42:47;;;;;;;1.00;1.00;;;;;;;14.27;55.41;102214.88;6265309;28;20185;-73
2021/09/02 08:45:52;;;;;;;1.25;0.98;;;;;;;14.38;55.28;102200.53;6265709;28;20188;-74
2021/09/02 08:49:00;;;;;;;0.80;0.80;;;;;;;14.36;55.28;102197.16;6265068;28;20195;-73
2021/09/02 08:52:07;;;;;;;3.47;2.65;;;;;;;14.45;56.62;102189.59;6265346;28;20216;-73
2021/09/02 08:55:13;;;;;;;1.38;1.10;;;;;;;14.54;55.98;102196.53;6264847;28;20292;-73
2021/09/02 08:58:17;;;;;;;0.93;0.93;;;;;;;14.31;56.90;102199.69;6264901;28;20196;-73
2021/09/02 09:01:21;;;;;;;1.33;1.08;;;;;;;14.34;56.68;102199.28;6264408;28;20201;-73
2021/09/02 09:04:34;;;;;;;1.00;1.00;;;;;;;14.30;57.70;102189.75;6264459;28;20232;-73
2021/09/02 09:07:43;;;;;;;0.90;0.90;;;;;;;14.49;58.07;102197.19;6263892;28;20192;-74
2021/09/02 09:10:49;;;;;;;1.02;1.02;;;;;;;14.57;57.95;102188.75;6264937;28;20220;-73
2021/09/02 09:14:15;;;;;;;0.82;0.82;;;;;;;14.68;57.39;102171.63;6263968;28;20229;-73
2021/09/02 09:17:39;;;;;;;1.30;1.20;;;;;;;14.77;57.65;102167.59;6263434;28;20211;-73
2021/09/02 09:21:06;;;;;;;1.42;0.80;;;;;;;14.82;56.72;102154.06;6264153;28;20212;-74
2021/09/02 09:24:12;;;;;;;0.90;0.90;;;;;;;14.88;58.41;102158.72;6264835;28;20461;-73
2021/09/02 09:27:18;;;;;;;0.90;0.90;;;;;;;14.91;60.15;102154.69;6264332;28;20189;-73
2021/09/02 09:30:23;;;;;;;1.10;1.10;;;;;;;14.93;58.97;102161.66;6263961;28;20195;-73
2021/09/02 09:34:01;;;;;;;2.05;1.10;;;;;;;14.94;60.89;102163.38;6262923;28;20228;-73
2021/09/02 09:37:25;;;;;;;1.85;1.02;;;;;;;15.12;60.64;102159.09;6263122;28;20200;-73
2021/09/02 09:40:53;;;;;;;0.77;0.77;;;;;;;15.28;60.25;102142.97;6262512;28;20274;-73
2021/09/02 09:44:18;;;;;;;1.05;1.05;;;;;;;15.35;60.25;102137.47;6263079;28;20235;-74
2021/09/02 09:47:44;;;;;;;1.02;1.00;;;;;;;15.48;60.33;102132.78;6263599;28;20242;-73
2021/09/02 09:51:06;;;;;;;5.70;1.40;;;;;;;15.47;60.94;102122.00;6264045;28;20220;-73
2021/09/02 09:54:32;;;;;;;2.25;1.50;;;;;;;15.55;61.84;102121.75;6262547;28;20185;-73
2021/09/02 09:57:38;;;;;;;1.27;1.27;;;;;;;15.73;61.71;102135.63;6263718;28;20185;-73
2021/09/02 10:00:43;;;;;;;0.80;0.80;;;;;;;15.86;61.41;102124.56;6263220;28;20216;-73
2021/09/02 10:04:00;;;;;;;1.00;0.77;;;;;;;15.91;62.16;102110.97;6263139;28;20233;-73
2021/09/02 10:07:06;;;;;;;1.02;0.98;;;;;;;15.92;62.44;102112.63;6263333;28;20255;-73
2021/09/02 10:10:33;;;;;;;1.15;1.10;;;;;;;15.90;61.25;102109.28;6263107;28;20192;-74
2021/09/02 10:13:55;;;;;;;1.00;1.00;;;;;;;16.07;61.47;102093.94;6262522;28;20193;-73
2021/09/02 10:17:20;;;;;;;0.85;0.73;;;;;;;16.20;62.13;102099.31;6262208;28;20200;-73
2021/09/02 10:20:45;;;;;;;0.82;0.82;;;;;;;16.33;61.16;102097.53;6261647;28;20240;-73
2021/09/02 10:24:34;;;;;;;0.90;0.90;;;;;;;16.32;61.65;102090.31;6262282;28;20193;-73
2021/09/02 10:28:05;;;;;;;1.27;0.88;;;;;;;16.42;61.63;102090.66;6263212;28;20185;-73
2021/09/02 10:31:28;;;;;;;0.80;0.80;;;;;;;16.54;61.26;102072.34;6261492;28;20398;-73
2021/09/02 10:35:31;;;;;;;0.85;0.85;;;;;;;16.64;61.80;102075.47;6226468;28;20200;-73
2021/09/02 10:38:38;;;;;;;0.75;0.75;;;;;;;16.69;61.04;102081.94;6262896;28;20192;-73
2021/09/02 10:41:49;;;;;;;1.85;0.80;;;;;;;16.77;61.47;102084.41;6261546;28;20288;-74
2021/09/02 10:44:53;;;;;;;4.28;0.90;;;;;;;16.81;62.03;102084.81;6261677;28;20256;-74
2021/09/02 10:48:01;;;;;;;1.27;0.88;;;;;;;16.84;63.17;102078.84;6262678;28;20184;-73
2021/09/02 10:51:33;;;;;;;2.38;0.70;;;;;;;16.82;62.14;102075.44;6262028;28;20200;-73
2021/09/02 10:54:44;;;;;;;0.70;0.70;;;;;;;16.78;62.95;102068.72;6262542;28;20189;-73
2021/09/02 10:57:49;;;;;;;0.90;0.90;;;;;;;16.79;62.46;102067.66;6261618;28;20185;-73
2021/09/02 11:00:53;;;;;;;1.10;1.00;;;;;;;16.85;63.82;102063.97;6262275;28;20272;-73
2021/09/02 11:04:04;;;;;;;1.10;0.90;;;;;;;16.81;63.75;102087.56;6262018;28;20243;-73
2021/09/02 11:07:09;;;;;;;1.05;1.05;;;;;;;16.62;63.61;102075.66;6262102;28;20185;-73
2021/09/02 11:10:21;;;;;;;1.30;1.20;;;;;;;16.80;63.88;102075.69;6262556;28;20224;-73
2021/09/02 11:13:33;;;;;;;1.13;1.13;;;;;;;16.92;62.37;102055.66;6262513;28;20185;-73
2021/09/02 11:16:41;;;;;;;1.17;1.17;;;;;;;16.96;64.49;102057.72;6261163;28;20185;-73
2021/09/02 11:19:47;;;;;;;0.98;0.98;;;;;;;17.01;63.41;102046.84;6261207;28;20185;-74
2021/09/02 11:22:51;;;;;;;1.23;1.23;;;;;;;17.04;63.93;102046.38;6262374;28;20259;-73
2021/09/02 11:25:55;;;;;;;1.08;1.08;;;;;;;17.21;63.48;102046.56;6261148;28;20492;-73
2021/09/02 11:29:00;;;;;;;2.60;1.10;;;;;;;17.18;62.94;102036.03;6262383;28;20264;-73
2021/09/02 11:32:10;;;;;;;1.27;1.27;;;;;;;17.20;62.25;102022.84;6262089;28;20196;-73
2021/09/02 11:35:16;;;;;;;1.00;1.00;;;;;;;17.34;62.24;102011.41;6261126;28;20189;-73
2021/09/02 11:38:20;;;;;;;5.05;1.02;;;;;;;17.35;63.48;102021.38;6261191;28;20192;-73
2021/09/02 11:41:24;;;;;;;1.17;1.17;;;;;;;17.41;62.00;102014.06;6261082;28;20411;-73
2021/09/02 11:44:35;;;;;;;1.52;1.30;;;;;;;17.43;61.93;102012.75;6262317;28;20191;-73
2021/09/02 11:47:39;;;;;;;1.20;1.20;;;;;;;17.38;61.88;102014.53;6260923;28;20445;-73
2021/09/02 11:50:56;;;;;;;1.20;1.20;;;;;;;17.39;61.02;102013.44;6260853;28;20193;-73
2021/09/02 11:54:05;;;;;;;1.23;1.13;;;;;;;17.41;62.20;102009.38;6260851;28;20493;-73
2021/09/02 11:57:24;;;;;;;4.95;1.40;;;;;;;17.54;60.87;102002.84;6262086;28;20223;-73
2021/09/02 12:00:32;;;;;;;1.50;1.45;;;;;;;17.56;61.27;102005.41;6261530;28;20276;-72
2021/09/02 12:03:37;;;;;;;1.58;1.50;;;;;;;17.48;60.92;102004.63;6263561;28;20193;-72
2021/09/02 12:06:43;;;;;;;9.75;1.50;;;;;;;17.58;61.06;102001.31;6265375;28;20250;-72
2021/09/02 12:09:50;;;;;;;4.35;1.52;;;;;;;17.70;60.75;101984.78;6266016;28;20193;-72
2021/09/02 12:12:54;;;;;;;1.70;1.70;;;;;;;17.75;60.45;101982.16;6266276;28;20199;-73
2021/09/02 12:16:06;;;;;;;1.58;1.58;;;;;;;17.68;60.59;101964.88;6266211;28;20184;-72
2021/09/02 12:19:11;;;;;;;1.42;1.42;;;;;;;17.81;60.28;101970.19;6264772;28;20185;-72
2021/09/02 12:22:16;;;;;;;2.65;1.80;;;;;;;17.82;61.25;101967.16;6265456;28;20244;-72
2021/09/02 12:25:22;;;;;;;1.80;1.70;;;;;;;17.86;59.83;101970.31;6265945;28;20295;-73
2021/09/02 12:28:37;;;;;;;1.98;1.98;;;;;;;17.98;59.23;101960.09;6264478;28;20186;-72
2021/09/02 12:31:42;;;;;;;1.75;1.75;;;;;;;17.99;60.93;101951.59;6265708;28;20200;-72
2021/09/02 12:34:47;;;;;;;1.95;1.95;;;;;;;18.08;58.78;101949.31;6264323;28;20364;-72
2021/09/02 12:37:57;;;;;;;3.60;1.83;;;;;;;18.14;60.21;101959.41;6264464;28;20477;-72
2021/09/02 12:41:11;;;;;;;3.70;2.20;;;;;;;18.33;59.98;101949.91;6264824;28;20498;-72
2021/09/02 12:44:26;;;;;;;2.38;2.17;;;;;;;18.48;59.24;101943.91;6265163;28;20192;-72
2021/09/02 12:47:30;;;;;;;2.60;2.28;;;;;;;18.51;58.30;101930.47;6264432;28;20185;-72
2021/09/02 12:50:35;;;;;;;2.70;2.22;;;;;;;18.55;57.81;101934.41;6265016;28;20191;-73
2021/09/02 12:53:40;;;;;;;5.25;2.22;;;;;;;18.66;57.55;101925.25;6264262;28;20191;-73
2021/09/02 12:56:47;;;;;;;3.92;2.83;;;;;;;18.71;57.20;101928.13;6264836;28;20185;-73
2021/09/02 12:59:52;;;;;;;2.25;2.15;;;;;;;18.71;56.14;101913.47;6263802;28;20485;-73
2021/09/02 13:03:00;;;;;;;2.72;2.53;;;;;;;18.90;56.81;101908.59;6263696;28;20259;-73
2021/09/02 13:06:04;;;;;;;3.13;2.30;;;;;;;18.99;57.38;101907.94;6264031;28;20555;-73
2021/09/02 13:09:11;;;;;;;2.53;2.42;;;;;;;19.03;57.28;101897.25;6264336;28;20185;-72
2021/09/02 13:12:15;;;;;;;2.92;2.72;;;;;;;18.97;57.13;101898.22;6263350;28;20192;-72
2021/09/02 13:15:19;;;;;;;2.60;2.50;;;;;;;18.80;57.05;101891.81;6263714;28;20216;-73
2021/09/02 13:18:23;;;;;;;2.85;2.75;;;;;;;18.90;57.48;101886.47;6264483;28;20185;-73
2021/09/02 13:21:28;;;;;;;2.72;2.50;;;;;;;18.80;57.01;101875.22;6264021;28;20220;-74
2021/09/02 13:24:33;;;;;;;2.70;2.60;;;;;;;18.92;56.31;101873.25;6264822;28;20303;-73
2021/09/02 13:27:39;;;;;;;2.60;2.50;;;;;;;18.91;58.51;101866.00;6262966;28;20264;-73
2021/09/02 13:30:43;;;;;;;11.88;2.88;;;;;;;18.97;57.77;101859.50;6262974;28;20473;-73
2021/09/02 13:33:47;;;;;;;2.72;2.63;;;;;;;18.91;58.26;101866.00;6262866;28;20189;-73
2021/09/02 13:36:53;;;;;;;2.60;2.50;;;;;;;18.92;58.09;101853.88;6264185;28;20191;-73
2021/09/02 13:39:59;;;;;;;2.70;2.60;;;;;;;19.12;58.07;101851.50;6262949;28;20423;-73
2021/09/02 13:43:04;;;;;;;3.13;2.92;;;;;;;19.11;57.69;101847.03;6262656;28;20301;-73
2021/09/02 13:46:11;;;;;;;2.58;2.38;;;;;;;19.14;57.28;101839.09;6262647;28;20433;-73
2021/09/02 13:49:15;;;;;;;2.95;2.85;;;;;;;19.20;58.85;101843.63;6262626;28;20191;-73
2021/09/02 13:52:19;;;;;;;5.38;3.00;;;;;;;19.23;58.33;101837.56;6262389;28;20480;-73
2021/09/02 13:55:24;;;;;;;4.22;3.80;;;;;;;19.30;57.57;101831.88;6262869;28;20220;-73
2021/09/02 13:58:29;;;;;;;3.60;3.30;;;;;;;19.31;57.11;101828.03;6263834;28;20248;-73
2021/09/02 14:01:33;;;;;;;7.47;3.58;;;;;;;19.27;56.24;101815.78;6262304;28;20291;-73
2021/09/02 14:04:38;;;;;;;3.10;2.80;;;;;;;19.22;55.79;101824.00;6262675;28;20236;-73
2021/09/02 14:07:42;;;;;;;4.53;3.72;;;;;;;19.33;55.61;101809.25;6263484;28;20223;-73
2021/09/02 14:10:47;;;;;;;3.47;3.17;;;;;;;19.23;55.77;101815.44;6262370;28;20197;-73
2021/09/02 14:13:51;;;;;;;3.10;2.88;;;;;;;19.32;55.52;101807.56;6263281;28;20306;-73
2021/09/02 14:16:55;;;;;;;3.13;2.92;;;;;;;19.31;54.90;101806.72;6261830;28;20504;-73
2021/09/02 14:20:00;;;;;;;4.78;3.25;;;;;;;19.28;54.79;101810.00;6262785;28;20252;-73
2021/09/02 14:23:05;;;;;;;2.95;2.83;;;;;;;19.38;55.59;101795.53;6262612;28;20312;-73
2021/09/02 14:26:11;;;;;;;4.10;3.80;;;;;;;19.38;55.12;101795.53;6260753;28;20382;-73
2021/09/02 14:29:15;;;;;;;3.30;3.10;;;;;;;19.40;54.70;101800.81;6261983;28;20510;-73